createdAt,value
2022-10-17T00:00:07.287Z,61.33
2022-10-17T00:03:31.150Z,61.46
2022-10-17T00:06:37.130Z,61.37
2022-10-17T00:09:43.719Z,61.13
2022-10-17T00:12:46.945Z,61.21
2022-10-17T00:15:50.491Z,61.28
2022-10-17T00:18:54.249Z,61.33
2022-10-17T00:21:58.949Z,61.60
2022-10-17T00:25:02.775Z,61.33
2022-10-17T00:28:06.654Z,61.22
2022-10-17T00:31:10.035Z,61.23
2022-10-17T00:34:13.728Z,61.50
2022-10-17T00:37:18.098Z,61.24
2022-10-17T00:40:21.658Z,61.16
2022-10-17T00:43:24.790Z,61.41
2022-10-17T00:46:32.103Z,61.47
2022-10-17T00:49:39.610Z,61.35
2022-10-17T00:52:46.808Z,61.18
2022-10-17T00:55:54.424Z,61.07
2022-10-17T00:58:58.318Z,61.10
2022-10-17T01:02:06.293Z,61.04
2022-10-17T01:05:11.716Z,61.02
2022-10-17T01:08:16.712Z,60.81
2022-10-17T01:11:39.441Z,60.86
2022-10-17T01:14:59.316Z,60.92
2022-10-17T01:18:20.300Z,60.89
2022-10-17T01:21:53.002Z,60.63
2022-10-17T01:25:27.959Z,60.57
2022-10-17T01:29:02.825Z,61.02
2022-10-17T01:32:17.617Z,60.56
2022-10-17T01:35:31.785Z,60.71
2022-10-17T01:38:47.769Z,60.53
2022-10-17T01:41:59.406Z,60.51
2022-10-17T01:45:11.562Z,60.55
2022-10-17T01:48:22.735Z,60.42
2022-10-17T01:51:36.257Z,60.35
2022-10-17T01:54:46.508Z,60.28
2022-10-17T01:57:56.644Z,60.16
2022-10-17T02:01:04.586Z,60.21
2022-10-17T02:04:12.857Z,60.18
2022-10-17T02:07:16.143Z,60.11
2022-10-17T02:10:31.790Z,60.14
2022-10-17T02:13:56.681Z,60.01
2022-10-17T02:17:14.792Z,59.89
2022-10-17T02:20:29.027Z,60.00
2022-10-17T02:23:47.482Z,60.03
2022-10-17T02:27:03.783Z,59.95
2022-10-17T02:30:13.736Z,59.98
2022-10-17T02:33:25.259Z,59.75
2022-10-17T02:36:42.109Z,59.74
2022-10-17T02:39:49.288Z,60.09
2022-10-17T02:42:57.282Z,59.77
2022-10-17T02:46:00.886Z,59.62
2022-10-17T02:49:13.457Z,59.59
2022-10-17T02:52:30.222Z,59.67
2022-10-17T02:55:42.107Z,59.38
2022-10-17T02:58:51.752Z,59.62
2022-10-17T03:01:56.025Z,59.42
2022-10-17T03:05:00.463Z,59.59
2022-10-17T03:08:06.120Z,59.39
2022-10-17T03:11:09.568Z,59.15
2022-10-17T03:14:12.924Z,59.40
2022-10-17T03:17:17.099Z,59.36
2022-10-17T03:20:20.809Z,59.59
2022-10-17T03:23:25.232Z,59.26
2022-10-17T03:26:30.069Z,59.20
2022-10-17T03:29:34.284Z,59.36
2022-10-17T03:32:39.776Z,59.10
2022-10-17T03:35:43.096Z,59.19
2022-10-17T03:38:48.624Z,59.37
2022-10-17T03:41:53.449Z,59.39
2022-10-17T03:44:56.999Z,59.25
2022-10-17T03:48:00.538Z,59.32
2022-10-17T03:51:07.266Z,59.24
2022-10-17T03:54:16.396Z,59.31
2022-10-17T03:57:20.512Z,59.13
2022-10-17T04:00:24.041Z,59.08
2022-10-17T04:03:33.040Z,59.24
2022-10-17T04:06:37.124Z,59.13
2022-10-17T04:09:42.764Z,59.15
2022-10-17T04:12:56.591Z,59.10
2022-10-17T04:16:03.280Z,59.10
2022-10-17T04:19:06.529Z,59.17
2022-10-17T04:22:16.356Z,59.10
2022-10-17T04:25:20.833Z,58.96
2022-10-17T04:28:25.805Z,59.09
2022-10-17T04:31:29.253Z,58.92
2022-10-17T04:34:42.598Z,58.91
2022-10-17T04:37:45.769Z,58.92
2022-10-17T04:40:57.783Z,58.89
2022-10-17T04:44:00.907Z,58.82
2022-10-17T04:47:04.639Z,58.78
2022-10-17T04:50:08.263Z,58.94
2022-10-17T04:53:13.068Z,58.92
2022-10-17T04:56:20.904Z,58.63
2022-10-17T04:59:24.091Z,58.85
2022-10-17T05:02:36.348Z,58.98
2022-10-17T05:05:41.643Z,59.37
2022-10-17T05:08:46.686Z,59.08
2022-10-17T05:11:51.485Z,59.14
2022-10-17T05:14:55.479Z,58.99
2022-10-17T05:18:02.070Z,59.21
2022-10-17T05:21:06.647Z,58.69
2022-10-17T05:24:14.549Z,58.59
2022-10-17T05:27:18.908Z,58.28
2022-10-17T05:30:22.794Z,58.49
2022-10-17T05:33:31.539Z,58.42
2022-10-17T05:36:34.877Z,58.32
2022-10-17T05:39:40.341Z,58.41
2022-10-17T05:42:49.663Z,58.02
2022-10-17T05:45:55.422Z,58.38
2022-10-17T05:48:59.170Z,58.17
2022-10-17T05:52:02.737Z,58.05
2022-10-17T05:55:11.465Z,57.79
2022-10-17T05:58:27.041Z,57.10
2022-10-17T06:01:35.988Z,56.25
2022-10-17T06:04:40.956Z,55.71
2022-10-17T06:07:45.260Z,55.59
2022-10-17T06:10:50.858Z,55.40
2022-10-17T06:13:55.912Z,54.84
2022-10-17T06:17:02.250Z,54.84
2022-10-17T06:20:08.946Z,53.79
2022-10-17T06:23:12.069Z,53.21
2022-10-17T06:26:29.828Z,52.80
2022-10-17T06:29:35.102Z,52.25
2022-10-17T06:32:39.122Z,52.02
2022-10-17T06:35:42.351Z,51.66
2022-10-17T06:38:46.305Z,51.91
2022-10-17T06:41:57.216Z,51.80
2022-10-17T06:45:16.688Z,52.13
2022-10-17T06:48:31.503Z,52.09
2022-10-17T06:51:50.361Z,52.43
2022-10-17T06:54:56.735Z,52.63
2022-10-17T06:58:42.549Z,52.71
2022-10-17T07:02:03.775Z,52.35
2022-10-17T07:05:08.162Z,52.34
2022-10-17T07:08:11.378Z,53.08
2022-10-17T07:11:20.288Z,52.77
2022-10-17T07:14:31.969Z,53.00
2022-10-17T07:17:37.744Z,52.91
2022-10-17T07:20:40.867Z,52.64
2022-10-17T07:23:44.212Z,52.65
2022-10-17T07:26:47.634Z,52.83
2022-10-17T07:29:51.460Z,52.70
2022-10-17T07:33:03.762Z,51.69
2022-10-17T07:36:08.396Z,51.77
2022-10-17T07:39:12.154Z,52.02
2022-10-17T07:42:15.703Z,51.67
2022-10-17T07:45:19.097Z,51.65
2022-10-17T07:48:26.216Z,52.04
2022-10-17T07:51:29.726Z,51.19
2022-10-17T07:54:33.159Z,52.10
2022-10-17T07:57:36.314Z,52.49
2022-10-17T08:00:41.046Z,52.73
2022-10-17T08:03:48.567Z,53.15
2022-10-17T08:06:56.427Z,51.74
2022-10-17T08:10:04.064Z,52.25
2022-10-17T08:13:07.930Z,52.70
2022-10-17T08:16:14.226Z,52.23
2022-10-17T08:19:19.035Z,54.46
2022-10-17T08:22:22.153Z,54.98
2022-10-17T08:25:25.760Z,55.79
2022-10-17T08:28:29.793Z,54.79
2022-10-17T08:31:33.035Z,54.95
2022-10-17T08:34:37.662Z,53.90
2022-10-17T08:37:41.375Z,53.99
2022-10-17T08:40:44.483Z,53.99
2022-10-17T08:44:09.028Z,53.56
2022-10-17T08:47:20.584Z,53.54
2022-10-17T08:50:37.092Z,52.64
2022-10-17T08:53:46.423Z,52.87
2022-10-17T08:56:54.338Z,52.88
2022-10-17T08:59:57.958Z,52.59
2022-10-17T09:03:23.658Z,52.40
2022-10-17T09:06:33.638Z,52.26
2022-10-17T09:09:52.357Z,52.11
2022-10-17T09:13:31.906Z,51.31
2022-10-17T09:17:00.788Z,50.83
2022-10-17T09:20:14.223Z,50.31
2022-10-17T09:23:24.823Z,49.75
2022-10-17T09:26:29.477Z,49.41
2022-10-17T09:29:37.900Z,49.22
2022-10-17T09:32:43.644Z,49.41
2022-10-17T09:41:00.663Z,48.92
2022-10-17T09:44:21.790Z,48.78
2022-10-17T09:47:32.931Z,48.66
2022-10-17T09:50:36.268Z,48.45
2022-10-17T09:53:46.185Z,48.27
2022-10-17T09:57:02.577Z,47.99
2022-10-17T10:00:09.141Z,46.10
2022-10-17T10:03:21.878Z,44.35
2022-10-17T10:06:25.160Z,44.09
2022-10-17T10:09:36.872Z,43.94
2022-10-17T10:12:42.509Z,43.83
2022-10-17T10:15:49.107Z,43.95
2022-10-17T10:18:53.343Z,44.31
2022-10-17T10:21:58.756Z,44.67
2022-10-17T10:25:16.088Z,44.20
2022-10-17T10:28:20.219Z,44.09
2022-10-17T10:31:36.161Z,44.36
2022-10-17T10:34:49.874Z,44.23
2022-10-17T10:37:56.698Z,44.21
2022-10-17T10:41:07.412Z,44.24
2022-10-17T10:44:17.033Z,43.98
2022-10-17T10:47:26.591Z,44.00
2022-10-17T10:50:42.978Z,44.21
2022-10-17T10:53:58.057Z,44.15
2022-10-17T10:57:06.190Z,43.83
2022-10-17T11:00:19.844Z,44.09
2022-10-17T11:03:33.254Z,44.43
2022-10-17T11:06:43.115Z,44.18
2022-10-17T11:09:57.310Z,44.90
2022-10-17T11:13:11.312Z,44.49
2022-10-17T11:16:36.625Z,44.57
2022-10-17T11:19:51.866Z,44.88
2022-10-17T11:23:01.876Z,45.14
2022-10-17T11:26:15.371Z,44.99
2022-10-17T11:29:18.433Z,45.40
2022-10-17T11:32:31.437Z,44.83
2022-10-17T11:35:42.050Z,45.02
2022-10-17T11:38:52.366Z,44.89
2022-10-17T11:42:06.739Z,44.93
2022-10-17T11:45:17.978Z,45.12
2022-10-17T11:48:29.696Z,44.91
2022-10-17T11:52:01.474Z,45.19
2022-10-17T11:55:18.464Z,44.52
2022-10-17T11:58:37.823Z,44.59
2022-10-17T12:01:49.944Z,44.72
2022-10-17T12:05:05.190Z,44.84
2022-10-17T12:08:22.025Z,44.87
2022-10-17T12:11:53.908Z,43.97
2022-10-17T12:15:31.544Z,44.34
2022-10-17T12:18:34.969Z,44.64
2022-10-17T12:21:58.369Z,44.60
2022-10-17T12:25:05.292Z,44.29
2022-10-17T12:28:17.792Z,44.08
2022-10-17T12:31:33.356Z,44.44
2022-10-17T12:34:37.276Z,43.97
2022-10-17T12:38:15.129Z,44.04
2022-10-17T12:41:54.920Z,43.85
2022-10-17T12:44:58.484Z,44.18
2022-10-17T12:48:01.455Z,44.27
2022-10-17T12:54:47.954Z,43.78
2022-10-17T12:58:03.145Z,43.97
2022-10-17T13:01:23.837Z,43.73
2022-10-17T13:04:30.823Z,43.55
2022-10-17T13:07:37.109Z,43.20
2022-10-17T13:10:43.226Z,43.59
2022-10-17T13:13:52.114Z,43.42
2022-10-17T13:16:58.901Z,44.11
2022-10-17T13:20:02.707Z,43.28
2022-10-17T13:23:06.225Z,42.80
2022-10-17T13:26:20.062Z,42.45
2022-10-17T13:29:28.664Z,43.08
2022-10-17T13:32:38.781Z,42.94
2022-10-17T13:35:59.370Z,42.80
2022-10-17T13:39:13.072Z,42.35
2022-10-17T13:42:25.608Z,42.56
2022-10-17T13:45:33.349Z,42.45
2022-10-17T13:48:39.422Z,42.25
2022-10-17T13:51:46.176Z,42.14
2022-10-17T13:54:53.600Z,42.04
2022-10-17T13:57:57.300Z,41.80
2022-10-17T14:01:02.545Z,43.19
2022-10-17T14:04:14.112Z,44.79
2022-10-17T14:07:46.223Z,44.42
2022-10-17T14:10:56.008Z,44.38
2022-10-17T14:14:02.111Z,43.65
2022-10-17T14:17:14.788Z,42.95
2022-10-17T14:23:45.855Z,43.59
2022-10-17T14:26:51.820Z,44.38
2022-10-17T14:30:00.671Z,43.57
2022-10-17T14:33:17.560Z,43.89
2022-10-17T14:36:30.869Z,43.57
2022-10-17T14:39:34.430Z,43.39
2022-10-17T14:42:41.428Z,42.45
2022-10-17T14:45:47.986Z,42.66
2022-10-17T14:49:06.269Z,42.75
2022-10-17T14:52:27.222Z,42.37
2022-10-17T14:55:33.261Z,42.31
2022-10-17T14:58:36.713Z,42.08
2022-10-17T15:01:39.684Z,43.28
2022-10-17T15:04:44.412Z,42.97
2022-10-17T15:07:48.070Z,42.71
2022-10-17T15:10:52.724Z,42.78
2022-10-17T15:13:55.736Z,43.00
2022-10-17T15:16:59.090Z,42.97
2022-10-17T15:20:03.509Z,42.74
2022-10-17T15:23:06.807Z,42.74
2022-10-17T15:26:19.386Z,42.65
2022-10-17T15:29:22.664Z,42.84
2022-10-17T15:32:25.700Z,42.87
2022-10-17T15:35:30.763Z,42.70
2022-10-17T15:38:34.798Z,42.88
2022-10-17T15:41:38.517Z,43.50
2022-10-17T15:44:44.162Z,43.04
2022-10-17T15:47:54.047Z,42.97
2022-10-17T15:50:58.930Z,42.99
2022-10-17T15:54:02.889Z,43.42
2022-10-17T15:57:06.054Z,43.23
2022-10-17T16:00:17.503Z,43.52
2022-10-17T16:06:30.319Z,43.72
2022-10-17T16:09:33.939Z,43.94
2022-10-17T16:12:41.289Z,43.93
2022-10-17T16:15:44.325Z,44.01
2022-10-17T16:18:47.954Z,44.21
2022-10-17T16:21:52.295Z,44.04
2022-10-17T16:24:59.193Z,44.27
2022-10-17T16:28:02.553Z,44.19
2022-10-17T16:31:15.810Z,44.46
2022-10-17T16:34:18.770Z,44.44
2022-10-17T16:37:23.817Z,44.78
2022-10-17T16:40:27.052Z,44.44
2022-10-17T16:43:36.477Z,44.96
2022-10-17T16:46:39.586Z,45.04
2022-10-17T16:49:45.312Z,45.33
2022-10-17T16:52:50.185Z,45.64
2022-10-17T16:56:01.622Z,45.57
2022-10-17T16:59:04.750Z,45.73
2022-10-17T17:02:08.756Z,46.04
2022-10-17T17:05:12.400Z,46.11
2022-10-17T17:08:17.298Z,46.36
2022-10-17T17:11:23.265Z,46.48
2022-10-17T17:14:27.166Z,46.97
2022-10-17T17:17:30.752Z,46.82
2022-10-17T17:20:48.562Z,46.95
2022-10-17T17:23:52.884Z,47.31
2022-10-17T17:26:58.505Z,47.56
2022-10-17T17:30:01.430Z,47.69
2022-10-17T17:33:06.667Z,48.24
2022-10-17T17:36:14.888Z,48.54
2022-10-17T17:39:20.060Z,48.84
2022-10-17T17:42:23.058Z,48.99
2022-10-17T17:45:26.936Z,48.94
2022-10-17T17:48:30.175Z,48.94
2022-10-17T17:51:34.779Z,49.20
2022-10-17T17:54:40.957Z,49.41
2022-10-17T17:57:44.494Z,49.50
2022-10-17T18:00:47.934Z,50.55
2022-10-17T18:03:55.836Z,50.64
2022-10-17T18:06:58.848Z,49.83
2022-10-17T18:10:06.950Z,50.57
2022-10-17T18:13:10.135Z,50.97
2022-10-17T18:16:14.962Z,51.07
2022-10-17T18:19:18.281Z,53.29
2022-10-17T18:22:25.965Z,54.85
2022-10-17T18:25:31.322Z,54.68
2022-10-17T18:28:36.242Z,54.23
2022-10-17T18:31:39.755Z,53.92
2022-10-17T18:34:44.114Z,53.14
2022-10-17T18:37:47.163Z,53.44
2022-10-17T18:40:52.051Z,52.96
2022-10-17T18:43:56.680Z,53.17
2022-10-17T18:47:03.841Z,52.48
2022-10-17T18:50:08.374Z,52.35
2022-10-17T18:53:11.944Z,52.37
2022-10-17T18:56:17.853Z,52.14
2022-10-17T18:59:23.060Z,52.16
2022-10-17T19:02:26.055Z,52.16
2022-10-17T19:05:30.868Z,52.06
2022-10-17T19:08:34.164Z,52.33
2022-10-17T19:11:40.229Z,52.36
2022-10-17T19:14:43.252Z,52.27
2022-10-17T19:17:47.217Z,52.14
2022-10-17T19:20:52.509Z,52.51
2022-10-17T19:23:58.671Z,52.31
2022-10-17T19:27:05.128Z,52.71
2022-10-17T19:30:10.744Z,52.74
2022-10-17T19:33:15.405Z,52.89
2022-10-17T19:36:21.458Z,52.93
2022-10-17T19:39:26.610Z,52.98
2022-10-17T19:42:32.731Z,53.33
2022-10-17T19:45:36.152Z,53.86
2022-10-17T19:48:40.744Z,56.51
2022-10-17T19:51:44.211Z,56.01
2022-10-17T19:54:47.678Z,55.43
2022-10-17T19:57:52.538Z,55.04
2022-10-17T20:01:00.992Z,54.44
2022-10-17T20:04:04.052Z,54.43
2022-10-17T20:07:07.297Z,54.17
2022-10-17T20:10:10.755Z,53.81
2022-10-17T20:13:15.926Z,54.83
2022-10-17T20:16:21.537Z,54.74
2022-10-17T20:19:24.954Z,54.68
2022-10-17T20:22:28.272Z,54.56
2022-10-17T20:25:33.348Z,54.64
2022-10-17T20:28:37.800Z,54.44
2022-10-17T20:31:43.215Z,54.19
2022-10-17T20:34:46.285Z,54.39
2022-10-17T20:37:50.032Z,54.37
2022-10-17T20:40:53.006Z,54.48
2022-10-17T20:43:58.221Z,57.51
2022-10-17T20:47:02.675Z,60.29
2022-10-17T20:50:07.384Z,60.50
2022-10-17T20:53:35.319Z,59.50
2022-10-17T20:56:36.160Z,59.26
2022-10-17T20:59:41.802Z,59.35
2022-10-17T21:02:45.431Z,58.66
2022-10-17T21:05:48.623Z,58.29
2022-10-17T21:08:55.953Z,58.16
2022-10-17T21:11:59.071Z,58.08
2022-10-17T21:15:04.936Z,57.79
2022-10-17T21:18:07.896Z,57.72
2022-10-17T21:21:16.109Z,57.70
2022-10-17T21:24:20.783Z,57.50
2022-10-17T21:27:24.378Z,57.55
2022-10-17T21:30:28.789Z,57.37
2022-10-17T21:33:32.170Z,57.38
2022-10-17T21:36:35.425Z,57.23
2022-10-17T21:39:38.938Z,57.16
2022-10-17T21:42:41.927Z,57.26
2022-10-17T21:45:46.874Z,57.01
2022-10-17T21:48:51.832Z,56.98
2022-10-17T21:51:55.343Z,56.98
2022-10-17T21:54:58.454Z,56.86
2022-10-17T21:58:01.864Z,56.85
2022-10-17T22:01:10.224Z,57.13
2022-10-17T22:04:19.819Z,57.01
2022-10-17T22:07:22.827Z,56.82
2022-10-17T22:10:26.361Z,56.73
2022-10-17T22:13:29.804Z,56.76
2022-10-17T22:16:36.011Z,56.70
2022-10-17T22:19:39.040Z,56.69
2022-10-17T22:22:42.205Z,56.55
2022-10-17T22:25:45.198Z,56.68
2022-10-17T22:28:48.471Z,56.91
2022-10-17T22:31:52.958Z,56.83
2022-10-17T22:34:56.120Z,56.83
2022-10-17T22:37:59.095Z,56.51
2022-10-17T22:41:02.836Z,56.42
2022-10-17T22:44:06.988Z,56.55
2022-10-17T22:47:11.654Z,56.18
2022-10-17T22:50:14.878Z,56.62
2022-10-17T22:53:23.856Z,56.37
2022-10-17T22:56:27.097Z,56.46
2022-10-17T22:59:30.455Z,56.30
2022-10-17T23:02:35.007Z,56.25
2022-10-17T23:05:38.511Z,56.16
2022-10-17T23:08:43.608Z,56.41
2022-10-17T23:11:47.246Z,56.33
2022-10-17T23:14:50.414Z,56.50
2022-10-17T23:17:55.537Z,56.42
2022-10-17T23:21:01.339Z,56.42
2022-10-17T23:24:05.381Z,56.54
2022-10-17T23:27:08.807Z,56.28
2022-10-17T23:30:12.944Z,56.19
2022-10-17T23:33:17.388Z,56.44
2022-10-17T23:36:22.161Z,56.04
2022-10-17T23:39:25.231Z,56.52
2022-10-17T23:42:29.271Z,56.50
2022-10-17T23:45:36.053Z,56.51
2022-10-17T23:48:43.301Z,56.34
2022-10-17T23:51:46.361Z,56.38
2022-10-17T23:54:50.166Z,56.48
2022-10-17T23:57:53.637Z,56.52
